Time;durP1;ratioP1;P1;durP2;ratioP2;P2;SDS_P1;SDS_P2;PMS_P1;PMS_P2;Temp;Humidity;BMP_temperature;BMP_pressure;BME280_temperature;BME280_humidity;BME280_pressure;Samples;Min_cycle;Max_cycle;Signal;HPM_P1;HPM_P2
2022/03/13 00:00:38;;;;;;;17.05;12.25;;;;;;;;;;5028486;28;20025;-55
2022/03/13 00:03:05;;;;;;;18.90;12.60;;;;;;;;;;5028294;28;20037;-54
2022/03/13 00:05:35;;;;;;;18.35;12.40;;;;;;;;;;5028644;28;20033;-54
2022/03/13 00:08:02;;;;;;;17.27;12.30;;;;;;;;;;5020668;28;20580;-54
2022/03/13 00:10:28;;;;;;;21.00;12.40;;;;;;;;;;5026969;28;20033;-55
2022/03/13 00:12:55;;;;;;;21.05;12.77;;;;;;;;;;5027888;28;20035;-56
2022/03/13 00:15:26;;;;;;;21.25;13.15;;;;;;;;;;5023056;28;20748;-55
2022/03/13 00:17:52;;;;;;;19.92;12.93;;;;;;;;;;5022888;28;20021;-56
2022/03/13 00:20:19;;;;;;;20.45;12.65;;;;;;;;;;5028312;28;20435;-55
2022/03/13 00:22:45;;;;;;;18.27;12.60;;;;;;;;;;5028093;28;20557;-55
2022/03/13 00:25:11;;;;;;;18.70;12.20;;;;;;;;;;5025998;28;20104;-55
2022/03/13 00:27:37;;;;;;;19.00;12.82;;;;;;;;;;5028370;28;20037;-55
2022/03/13 00:30:05;;;;;;;18.92;12.93;;;;;;;;;;5025395;28;20079;-55
2022/03/13 00:32:31;;;;;;;18.33;12.30;;;;;;;;;;5025675;28;20037;-55
2022/03/13 00:34:58;;;;;;;22.67;14.43;;;;;;;;;;5025943;28;20033;-53
2022/03/13 00:37:24;;;;;;;19.88;12.52;;;;;;;;;;5031447;28;20037;-54
2022/03/13 00:39:51;;;;;;;17.63;12.88;;;;;;;;;;5036238;28;20025;-56
2022/03/13 00:42:17;;;;;;;17.90;12.73;;;;;;;;;;5028261;28;20044;-56
2022/03/13 00:44:43;;;;;;;19.60;12.65;;;;;;;;;;5031176;28;20279;-54
2022/03/13 00:47:09;;;;;;;18.70;13.52;;;;;;;;;;5031657;28;20036;-55
2022/03/13 00:49:35;;;;;;;18.85;13.32;;;;;;;;;;5023411;28;20037;-54
2022/03/13 00:52:01;;;;;;;18.08;13.10;;;;;;;;;;5028823;28;20080;-55
2022/03/13 00:54:28;;;;;;;19.38;12.57;;;;;;;;;;5028277;28;20115;-54
2022/03/13 00:56:54;;;;;;;16.73;12.48;;;;;;;;;;5037547;28;20116;-55
2022/03/13 00:59:21;;;;;;;19.52;12.32;;;;;;;;;;5026028;28;20116;-53
2022/03/13 01:01:47;;;;;;;20.58;13.00;;;;;;;;;;5034922;28;20527;-57
2022/03/13 01:04:13;;;;;;;18.88;12.60;;;;;;;;;;5028989;28;20029;-55
2022/03/13 01:06:40;;;;;;;16.67;12.07;;;;;;;;;;5031601;28;20049;-56
2022/03/13 01:09:06;;;;;;;21.55;13.05;;;;;;;;;;5025460;28;20026;-56
2022/03/13 01:11:32;;;;;;;17.60;12.25;;;;;;;;;;5029578;28;20040;-55
2022/03/13 01:13:58;;;;;;;17.55;12.65;;;;;;;;;;5032280;28;20026;-55
2022/03/13 01:16:27;;;;;;;17.42;12.15;;;;;;;;;;5027213;28;20543;-55
2022/03/13 01:18:58;;;;;;;19.33;12.80;;;;;;;;;;5036375;28;20388;-56
2022/03/13 01:21:24;;;;;;;17.50;12.13;;;;;;;;;;5028091;28;20469;-54
2022/03/13 01:23:56;;;;;;;19.17;12.68;;;;;;;;;;5030108;28;20443;-54
2022/03/13 01:26:22;;;;;;;19.83;13.05;;;;;;;;;;5027627;28;20474;-55
2022/03/13 01:28:52;;;;;;;19.42;12.63;;;;;;;;;;5033514;28;20025;-56
2022/03/13 01:31:21;;;;;;;19.50;12.63;;;;;;;;;;5032675;28;20666;-55
2022/03/13 01:33:47;;;;;;;18.55;12.30;;;;;;;;;;5029972;28;20057;-55
2022/03/13 01:36:13;;;;;;;19.48;11.75;;;;;;;;;;5030639;28;20061;-54
2022/03/13 01:38:40;;;;;;;20.88;11.95;;;;;;;;;;5027208;28;20025;-55
2022/03/13 01:41:06;;;;;;;18.48;11.63;;;;;;;;;;5027235;28;20463;-56
2022/03/13 01:43:32;;;;;;;20.58;12.45;;;;;;;;;;5027201;28;20455;-54
2022/03/13 01:45:59;;;;;;;20.50;12.73;;;;;;;;;;5028267;28;20500;-54
2022/03/13 01:48:25;;;;;;;19.65;11.73;;;;;;;;;;5023857;28;20057;-54
2022/03/13 01:50:52;;;;;;;15.57;11.10;;;;;;;;;;5026784;28;20029;-55
2022/03/13 01:53:20;;;;;;;16.92;11.00;;;;;;;;;;5026201;28;20732;-55
2022/03/13 01:55:46;;;;;;;14.65;11.13;;;;;;;;;;5022201;28;20041;-54
2022/03/13 01:58:12;;;;;;;17.83;12.02;;;;;;;;;;5030060;28;21384;-55
2022/03/13 02:00:39;;;;;;;16.40;11.68;;;;;;;;;;5026600;28;20056;-55
2022/03/13 02:03:04;;;;;;;16.77;11.10;;;;;;;;;;5029040;28;20030;-55
2022/03/13 02:05:37;;;;;;;16.42;11.43;;;;;;;;;;5028891;28;20115;-55
2022/03/13 02:08:08;;;;;;;19.00;11.57;;;;;;;;;;5026295;28;20018;-55
2022/03/13 02:10:34;;;;;;;17.38;11.13;;;;;;;;;;5026758;28;20025;-55
2022/03/13 02:13:01;;;;;;;17.48;11.15;;;;;;;;;;5026021;28;20157;-55
2022/03/13 02:15:29;;;;;;;18.55;11.00;;;;;;;;;;5025613;28;20116;-55
2022/03/13 02:17:55;;;;;;;16.25;11.45;;;;;;;;;;5023092;28;20204;-54
2022/03/13 02:20:22;;;;;;;14.88;10.75;;;;;;;;;;5026442;28;20846;-56
2022/03/13 02:22:48;;;;;;;15.13;10.80;;;;;;;;;;5025675;28;20445;-54
2022/03/13 02:25:23;;;;;;;15.70;11.10;;;;;;;;;;5030538;28;20083;-55
2022/03/13 02:27:49;;;;;;;19.13;11.20;;;;;;;;;;5027696;28;20025;-54
2022/03/13 02:30:15;;;;;;;17.15;11.38;;;;;;;;;;5028626;28;20025;-56
2022/03/13 02:32:41;;;;;;;17.98;10.68;;;;;;;;;;5025764;28;20040;-56
2022/03/13 02:35:07;;;;;;;16.55;11.00;;;;;;;;;;5023989;28;20108;-54
2022/03/13 02:37:40;;;;;;;15.15;11.10;;;;;;;;;;5030670;28;20532;-56
2022/03/13 02:40:07;;;;;;;15.88;11.15;;;;;;;;;;5021541;28;20042;-55
2022/03/13 02:42:33;;;;;;;15.73;10.30;;;;;;;;;;5027027;28;20033;-56
2022/03/13 02:44:59;;;;;;;14.90;10.50;;;;;;;;;;5026908;28;20048;-54
2022/03/13 02:47:25;;;;;;;16.80;10.07;;;;;;;;;;5027209;28;20579;-54
2022/03/13 02:49:51;;;;;;;14.57;10.57;;;;;;;;;;5028432;28;20033;-56
2022/03/13 02:52:17;;;;;;;14.48;10.38;;;;;;;;;;5028284;28;20559;-56
2022/03/13 02:54:43;;;;;;;16.27;10.57;;;;;;;;;;5032491;28;20048;-56
2022/03/13 02:57:09;;;;;;;16.75;10.60;;;;;;;;;;5028087;28;20028;-55
2022/03/13 02:59:35;;;;;;;15.95;10.43;;;;;;;;;;5023980;28;20033;-53
2022/03/13 03:02:02;;;;;;;14.57;10.57;;;;;;;;;;5026467;28;20054;-54
2022/03/13 03:04:28;;;;;;;15.05;9.57;;;;;;;;;;5027831;28;20061;-53
2022/03/13 03:06:54;;;;;;;20.40;11.27;;;;;;;;;;5047664;28;20515;-54
2022/03/13 03:09:20;;;;;;;17.17;10.90;;;;;;;;;;5032124;28;20100;-55
2022/03/13 03:11:47;;;;;;;15.05;10.07;;;;;;;;;;5030090;28;20108;-55
2022/03/13 03:14:14;;;;;;;15.88;9.90;;;;;;;;;;5025136;28;20080;-55
2022/03/13 03:16:40;;;;;;;18.65;11.07;;;;;;;;;;5027350;28;20041;-56
2022/03/13 03:19:06;;;;;;;17.10;10.77;;;;;;;;;;5023159;28;20040;-55
2022/03/13 03:21:32;;;;;;;15.10;9.85;;;;;;;;;;5028813;28;20037;-56
2022/03/13 03:23:58;;;;;;;13.27;9.80;;;;;;;;;;5024129;28;20018;-56
2022/03/13 03:26:24;;;;;;;14.05;10.18;;;;;;;;;;5025366;28;20124;-56
2022/03/13 03:28:50;;;;;;;15.70;10.30;;;;;;;;;;5024311;28;20033;-56
2022/03/13 03:31:16;;;;;;;14.35;9.80;;;;;;;;;;5030660;28;20100;-54
2022/03/13 03:33:43;;;;;;;15.50;10.07;;;;;;;;;;5027657;28;20100;-56
2022/03/13 03:36:14;;;;;;;14.07;10.18;;;;;;;;;;5025856;28;20388;-55
2022/03/13 03:38:40;;;;;;;17.00;10.13;;;;;;;;;;5027756;28;20389;-54
2022/03/13 03:41:06;;;;;;;17.20;11.05;;;;;;;;;;5021528;28;20071;-53
2022/03/13 03:43:32;;;;;;;13.93;9.60;;;;;;;;;;5027651;28;20013;-54
2022/03/13 03:45:58;;;;;;;15.68;10.02;;;;;;;;;;5024779;28;20032;-55
2022/03/13 03:48:24;;;;;;;13.95;10.02;;;;;;;;;;5026741;28;20036;-56
2022/03/13 03:50:50;;;;;;;18.55;10.25;;;;;;;;;;5028985;28;20140;-56
2022/03/13 03:53:16;;;;;;;17.55;10.15;;;;;;;;;;5025072;28;20636;-55
2022/03/13 03:55:42;;;;;;;18.50;9.73;;;;;;;;;;5028418;28;20037;-55
2022/03/13 03:58:08;;;;;;;15.20;9.88;;;;;;;;;;5026504;28;20029;-56
2022/03/13 04:00:34;;;;;;;15.23;10.15;;;;;;;;;;5027794;28;20155;-55
2022/03/13 04:03:01;;;;;;;14.65;10.15;;;;;;;;;;5024950;28;20027;-56
2022/03/13 04:05:27;;;;;;;14.07;9.55;;;;;;;;;;5033169;28;20614;-55
2022/03/13 04:07:53;;;;;;;14.35;9.30;;;;;;;;;;5027555;28;20079;-55
2022/03/13 04:10:19;;;;;;;13.55;9.43;;;;;;;;;;5025567;28;20083;-54
2022/03/13 04:12:45;;;;;;;13.18;9.13;;;;;;;;;;5030096;28;20033;-53
2022/03/13 04:15:11;;;;;;;14.05;9.20;;;;;;;;;;5026614;28;20026;-54
2022/03/13 04:17:37;;;;;;;15.52;10.55;;;;;;;;;;5034789;28;20029;-55
2022/03/13 04:20:06;;;;;;;15.48;9.45;;;;;;;;;;5026380;28;20029;-55
2022/03/13 04:22:32;;;;;;;16.92;9.48;;;;;;;;;;5022689;28;20068;-56
2022/03/13 04:24:58;;;;;;;15.55;9.90;;;;;;;;;;5024965;28;20045;-56
2022/03/13 04:27:25;;;;;;;15.57;10.02;;;;;;;;;;5027535;28;20033;-55
2022/03/13 04:29:51;;;;;;;15.98;9.35;;;;;;;;;;5023774;28;20516;-55
2022/03/13 04:32:22;;;;;;;17.58;9.82;;;;;;;;;;5024289;28;20101;-54
2022/03/13 04:34:48;;;;;;;13.38;9.07;;;;;;;;;;5026804;28;20707;-55
2022/03/13 04:37:16;;;;;;;13.95;9.38;;;;;;;;;;5025164;28;20026;-55
2022/03/13 04:39:42;;;;;;;14.15;8.98;;;;;;;;;;5027091;28;20033;-55
2022/03/13 04:42:08;;;;;;;13.32;8.93;;;;;;;;;;5025720;28;20084;-55
2022/03/13 04:44:34;;;;;;;14.25;9.10;;;;;;;;;;5026014;28;20035;-55
2022/03/13 04:47:01;;;;;;;12.82;9.18;;;;;;;;;;5025166;28;20064;-56
2022/03/13 04:49:27;;;;;;;14.55;9.52;;;;;;;;;;5027049;28;20037;-55
2022/03/13 04:51:53;;;;;;;16.42;9.48;;;;;;;;;;5026052;28;20075;-53
2022/03/13 04:54:19;;;;;;;12.65;9.00;;;;;;;;;;5029614;28;20435;-56
2022/03/13 04:56:46;;;;;;;20.30;9.27;;;;;;;;;;5025467;28;20052;-53
2022/03/13 04:59:12;;;;;;;17.50;9.75;;;;;;;;;;5034187;28;20022;-55
2022/03/13 05:01:39;;;;;;;15.82;9.27;;;;;;;;;;5023359;28;20408;-55
2022/03/13 05:04:05;;;;;;;15.07;9.18;;;;;;;;;;5027511;28;20755;-55
2022/03/13 05:06:35;;;;;;;13.52;9.32;;;;;;;;;;5024730;28;20025;-56
2022/03/13 05:09:01;;;;;;;14.98;9.25;;;;;;;;;;5023044;28;20346;-54
2022/03/13 05:11:27;;;;;;;15.43;9.13;;;;;;;;;;5025182;28;20033;-55
2022/03/13 05:13:54;;;;;;;15.88;8.90;;;;;;;;;;5018868;28;21809;-55
2022/03/13 05:16:20;;;;;;;14.82;8.93;;;;;;;;;;5025208;28;20018;-56
2022/03/13 05:18:46;;;;;;;14.43;9.30;;;;;;;;;;5024725;28;20025;-55
2022/03/13 05:21:12;;;;;;;15.73;9.30;;;;;;;;;;5030319;28;20021;-55
2022/03/13 05:23:38;;;;;;;13.70;9.13;;;;;;;;;;5028646;28;20377;-56
2022/03/13 05:26:03;;;;;;;12.90;8.82;;;;;;;;;;5028328;28;20116;-55
2022/03/13 05:28:29;;;;;;;12.90;8.88;;;;;;;;;;5034376;28;20443;-54
2022/03/13 05:30:55;;;;;;;13.52;9.23;;;;;;;;;;5028737;28;20033;-55
2022/03/13 05:33:21;;;;;;;13.23;8.57;;;;;;;;;;5027135;28;20373;-54
2022/03/13 05:35:47;;;;;;;13.77;9.55;;;;;;;;;;5026165;28;20033;-55
2022/03/13 05:38:14;;;;;;;13.98;8.98;;;;;;;;;;5026700;28;20087;-54
2022/03/13 05:40:41;;;;;;;13.95;9.15;;;;;;;;;;5028909;28;20075;-54
2022/03/13 05:43:07;;;;;;;13.45;9.07;;;;;;;;;;5027362;28;20038;-55
2022/03/13 05:45:33;;;;;;;13.40;8.80;;;;;;;;;;5035112;28;20562;-54
2022/03/13 05:48:00;;;;;;;14.60;9.13;;;;;;;;;;5034164;28;20069;-54
2022/03/13 05:50:27;;;;;;;14.00;9.25;;;;;;;;;;5029251;28;20061;-54
2022/03/13 05:52:55;;;;;;;14.35;9.45;;;;;;;;;;5028120;28;20716;-55
2022/03/13 05:55:21;;;;;;;15.05;9.02;;;;;;;;;;5032319;28;20017;-53
2022/03/13 05:57:47;;;;;;;12.07;8.52;;;;;;;;;;5029155;28;20076;-54
2022/03/13 06:00:14;;;;;;;12.07;8.57;;;;;;;;;;5028836;28;20362;-54
2022/03/13 06:02:40;;;;;;;15.18;8.63;;;;;;;;;;5032760;28;20318;-54
2022/03/13 06:05:07;;;;;;;13.75;8.65;;;;;;;;;;5031685;28;20021;-56
2022/03/13 06:07:34;;;;;;;15.23;8.82;;;;;;;;;;5030181;28;20033;-54
2022/03/13 06:10:03;;;;;;;14.55;8.95;;;;;;;;;;5027702;28;20176;-54
2022/03/13 06:12:30;;;;;;;12.90;8.13;;;;;;;;;;5022109;28;20036;-54
2022/03/13 06:14:56;;;;;;;12.02;8.45;;;;;;;;;;5027695;28;20043;-54
2022/03/13 06:17:22;;;;;;;12.75;8.73;;;;;;;;;;5033170;28;20091;-55
2022/03/13 06:19:48;;;;;;;13.27;8.50;;;;;;;;;;5030945;28;20502;-53
2022/03/13 06:22:14;;;;;;;15.52;8.93;;;;;;;;;;5030474;28;20025;-55
2022/03/13 06:24:40;;;;;;;14.02;8.60;;;;;;;;;;5032395;28;20476;-53
2022/03/13 06:27:06;;;;;;;12.02;8.13;;;;;;;;;;5029252;28;20549;-56
2022/03/13 06:29:32;;;;;;;12.95;8.35;;;;;;;;;;5027825;28;20052;-56
2022/03/13 06:31:59;;;;;;;13.02;8.57;;;;;;;;;;5028561;28;20122;-55
2022/03/13 06:34:25;;;;;;;17.17;8.65;;;;;;;;;;5031787;28;20064;-53
2022/03/13 06:36:51;;;;;;;12.88;8.35;;;;;;;;;;5029440;28;20036;-55
2022/03/13 06:39:18;;;;;;;15.60;8.68;;;;;;;;;;5030146;28;20030;-55
2022/03/13 06:41:44;;;;;;;12.80;8.18;;;;;;;;;;5027001;28;20168;-55
2022/03/13 06:44:10;;;;;;;11.57;8.20;;;;;;;;;;5026729;28;20718;-55
2022/03/13 06:46:36;;;;;;;14.65;9.30;;;;;;;;;;5027743;28;20080;-55
2022/03/13 06:49:05;;;;;;;13.30;8.50;;;;;;;;;;5028422;28;20481;-55
2022/03/13 06:51:30;;;;;;;14.30;8.57;;;;;;;;;;5028082;28;20559;-55
2022/03/13 06:53:57;;;;;;;14.63;8.75;;;;;;;;;;5029888;28;20041;-55
2022/03/13 06:56:23;;;;;;;12.95;8.82;;;;;;;;;;5027947;28;20029;-56
2022/03/13 06:58:49;;;;;;;12.80;8.88;;;;;;;;;;5027857;28;20033;-55
2022/03/13 07:01:15;;;;;;;14.60;9.10;;;;;;;;;;5031112;28;20032;-55
2022/03/13 07:03:42;;;;;;;16.63;8.60;;;;;;;;;;5028012;28;20021;-55
2022/03/13 07:06:08;;;;;;;13.98;8.73;;;;;;;;;;5026207;28;20026;-56
2022/03/13 07:08:34;;;;;;;13.68;9.27;;;;;;;;;;5026111;28;20030;-57
2022/03/13 07:11:01;;;;;;;12.85;8.25;;;;;;;;;;5028728;28;20037;-57
2022/03/13 07:13:32;;;;;;;12.93;8.20;;;;;;;;;;5030285;28;20044;-56
2022/03/13 07:15:59;;;;;;;11.75;8.15;;;;;;;;;;5024682;28;20120;-56
2022/03/13 07:18:26;;;;;;;11.93;8.32;;;;;;;;;;5031390;28;20440;-57
2022/03/13 07:20:52;;;;;;;13.02;8.65;;;;;;;;;;5029707;28;20719;-56
2022/03/13 07:23:18;;;;;;;18.15;8.82;;;;;;;;;;5034038;28;20037;-56
2022/03/13 07:25:44;;;;;;;14.02;8.80;;;;;;;;;;5027699;28;20040;-56
2022/03/13 07:28:10;;;;;;;15.77;8.15;;;;;;;;;;5031765;28;20124;-57
2022/03/13 07:30:36;;;;;;;15.30;8.63;;;;;;;;;;5030165;28;20025;-56
2022/03/13 07:33:02;;;;;;;14.40;8.52;;;;;;;;;;5025561;28;20032;-56
2022/03/13 07:35:28;;;;;;;13.40;8.20;;;;;;;;;;5027776;28;20376;-56
2022/03/13 07:37:54;;;;;;;16.33;8.93;;;;;;;;;;5024736;28;20040;-56
2022/03/13 07:40:20;;;;;;;15.43;9.38;;;;;;;;;;5031086;28;20368;-56
2022/03/13 07:42:47;;;;;;;13.02;8.32;;;;;;;;;;5028583;28;20049;-57
2022/03/13 07:45:13;;;;;;;13.13;8.77;;;;;;;;;;5029924;28;20013;-57
2022/03/13 07:47:39;;;;;;;13.57;8.50;;;;;;;;;;5027368;28;20444;-56
2022/03/13 07:50:05;;;;;;;13.77;8.77;;;;;;;;;;5026098;28;20040;-55
2022/03/13 07:52:32;;;;;;;14.35;8.30;;;;;;;;;;5023487;28;20021;-56
2022/03/13 07:54:57;;;;;;;13.45;8.00;;;;;;;;;;5025924;28;20673;-54
2022/03/13 07:57:24;;;;;;;13.82;8.55;;;;;;;;;;5025010;28;20108;-55
2022/03/13 07:59:50;;;;;;;15.07;9.25;;;;;;;;;;5023172;28;20033;-55
2022/03/13 08:02:16;;;;;;;12.07;8.65;;;;;;;;;;5026097;28;20374;-55
2022/03/13 08:04:42;;;;;;;15.25;8.88;;;;;;;;;;5022067;28;20032;-57
2022/03/13 08:07:08;;;;;;;12.10;8.73;;;;;;;;;;5026609;28;20044;-55
2022/03/13 08:09:35;;;;;;;12.07;8.77;;;;;;;;;;5029681;28;20124;-53
2022/03/13 08:12:02;;;;;;;15.77;9.30;;;;;;;;;;5027571;28;20044;-54
2022/03/13 08:14:28;;;;;;;13.90;9.38;;;;;;;;;;5025429;28;20033;-55
2022/03/13 08:16:54;;;;;;;15.57;9.50;;;;;;;;;;5026727;28;20090;-56
2022/03/13 08:19:20;;;;;;;14.18;8.77;;;;;;;;;;5029439;28;20021;-55
2022/03/13 08:21:46;;;;;;;14.35;8.88;;;;;;;;;;5021264;28;20034;-54
2022/03/13 08:24:15;;;;;;;14.27;8.73;;;;;;;;;;5023811;28;20637;-56
2022/03/13 08:26:41;;;;;;;15.05;9.05;;;;;;;;;;5023819;28;20039;-56
2022/03/13 08:29:08;;;;;;;13.48;9.27;;;;;;;;;;5027252;28;20055;-54
2022/03/13 08:31:34;;;;;;;13.95;9.30;;;;;;;;;;5028379;28;20115;-55
2022/03/13 08:34:01;;;;;;;13.60;9.23;;;;;;;;;;5023971;28;20080;-56
2022/03/13 08:36:27;;;;;;;13.07;8.60;;;;;;;;;;5022781;28;20044;-54
2022/03/13 08:38:53;;;;;;;14.88;9.27;;;;;;;;;;5024012;28;20033;-54
2022/03/13 08:41:19;;;;;;;14.77;9.38;;;;;;;;;;5022477;28;20136;-56
2022/03/13 08:43:45;;;;;;;14.63;9.52;;;;;;;;;;5020767;28;20533;-55
2022/03/13 08:46:15;;;;;;;15.38;10.10;;;;;;;;;;5026919;28;20029;-55
2022/03/13 08:48:41;;;;;;;14.55;9.00;;;;;;;;;;5028336;28;20033;-55
2022/03/13 08:51:08;;;;;;;14.38;9.30;;;;;;;;;;5025632;28;20044;-55
2022/03/13 08:53:34;;;;;;;17.35;9.63;;;;;;;;;;5029403;28;20459;-55
2022/03/13 08:56:00;;;;;;;15.38;10.70;;;;;;;;;;5028556;28;20125;-56
2022/03/13 08:58:26;;;;;;;15.02;9.85;;;;;;;;;;5029467;28;20056;-56
2022/03/13 09:00:52;;;;;;;14.20;9.02;;;;;;;;;;5026316;28;20049;-57
2022/03/13 09:03:18;;;;;;;17.67;10.02;;;;;;;;;;5029165;28;20086;-55
2022/03/13 09:05:45;;;;;;;15.88;9.32;;;;;;;;;;5029935;28;20428;-55
2022/03/13 09:08:11;;;;;;;13.02;9.15;;;;;;;;;;5028401;28;20022;-55
2022/03/13 09:10:37;;;;;;;14.63;9.95;;;;;;;;;;5032045;28;20068;-56
2022/03/13 09:13:03;;;;;;;13.70;10.15;;;;;;;;;;5027790;28;20540;-55
2022/03/13 09:15:29;;;;;;;12.82;9.32;;;;;;;;;;5023084;28;20063;-55
2022/03/13 09:17:55;;;;;;;17.63;9.80;;;;;;;;;;5029631;28;20567;-54
2022/03/13 09:20:22;;;;;;;17.27;10.13;;;;;;;;;;5029978;28;20028;-56
2022/03/13 09:22:48;;;;;;;15.93;9.52;;;;;;;;;;5037194;28;20472;-55
2022/03/13 09:25:15;;;;;;;15.25;9.95;;;;;;;;;;5023777;28;20501;-56
2022/03/13 09:27:41;;;;;;;15.32;10.15;;;;;;;;;;5027909;28;20095;-55
2022/03/13 09:30:08;;;;;;;14.15;9.73;;;;;;;;;;5028648;28;20025;-54
2022/03/13 09:32:34;;;;;;;16.70;10.52;;;;;;;;;;5029471;28;20036;-57
2022/03/13 09:35:00;;;;;;;15.98;10.00;;;;;;;;;;5028831;28;20025;-56
2022/03/13 09:37:26;;;;;;;15.77;9.82;;;;;;;;;;5031627;28;20135;-55
2022/03/13 09:39:52;;;;;;;15.43;10.13;;;;;;;;;;5032741;28;20294;-55
2022/03/13 09:42:18;;;;;;;17.70;9.93;;;;;;;;;;5026082;28;20072;-55
2022/03/13 09:44:44;;;;;;;13.80;9.52;;;;;;;;;;5029568;28;20068;-55
2022/03/13 09:47:11;;;;;;;17.73;9.95;;;;;;;;;;5027636;28;20126;-56
2022/03/13 09:49:37;;;;;;;16.17;10.07;;;;;;;;;;5027497;28;20029;-55
2022/03/13 09:52:03;;;;;;;16.00;10.20;;;;;;;;;;5028353;28;20029;-54
2022/03/13 09:54:29;;;;;;;15.85;10.40;;;;;;;;;;5029858;28;20473;-57
2022/03/13 09:56:55;;;;;;;14.23;10.18;;;;;;;;;;5029529;28;20480;-56
2022/03/13 09:59:22;;;;;;;14.50;10.23;;;;;;;;;;5024867;28;20548;-55
2022/03/13 10:01:48;;;;;;;15.20;10.40;;;;;;;;;;5028535;28;20025;-55
2022/03/13 10:04:14;;;;;;;15.23;10.50;;;;;;;;;;5025036;28;20236;-56
2022/03/13 10:06:59;;;;;;;13.98;9.88;;;;;;;;;;5031092;28;20032;-55
2022/03/13 10:09:26;;;;;;;15.73;10.30;;;;;;;;;;5023063;28;20098;-56
2022/03/13 10:12:02;;;;;;;15.93;10.70;;;;;;;;;;5027300;28;20037;-55
2022/03/13 10:14:28;;;;;;;15.60;10.65;;;;;;;;;;5025065;28;20130;-55
2022/03/13 10:16:54;;;;;;;17.38;10.50;;;;;;;;;;5027276;28;20044;-54
2022/03/13 10:19:20;;;;;;;16.30;10.77;;;;;;;;;;5029641;28;20120;-54
2022/03/13 10:22:02;;;;;;;19.50;11.98;;;;;;;;;;5027690;28;20026;-55
2022/03/13 10:24:28;;;;;;;16.85;10.88;;;;;;;;;;5030152;28;20068;-56
2022/03/13 10:27:09;;;;;;;17.10;10.63;;;;;;;;;;5027858;28;20668;-55
2022/03/13 10:29:35;;;;;;;19.40;11.93;;;;;;;;;;5029227;28;20092;-56
2022/03/13 10:32:02;;;;;;;14.82;10.93;;;;;;;;;;5027559;28;20033;-56
2022/03/13 10:34:29;;;;;;;15.82;11.07;;;;;;;;;;5026002;28;20063;-55
2022/03/13 10:36:55;;;;;;;17.63;11.48;;;;;;;;;;5025531;28;20029;-55
2022/03/13 10:39:21;;;;;;;17.00;11.10;;;;;;;;;;5026636;28;20028;-54
2022/03/13 10:41:53;;;;;;;16.20;11.05;;;;;;;;;;5026477;28;20025;-55
2022/03/13 10:44:22;;;;;;;18.58;11.50;;;;;;;;;;5026930;28;20034;-57
2022/03/13 10:47:05;;;;;;;20.60;11.77;;;;;;;;;;5026560;28;20040;-56
2022/03/13 10:49:36;;;;;;;15.30;11.07;;;;;;;;;;5028823;28;20028;-55
2022/03/13 10:52:09;;;;;;;17.33;11.35;;;;;;;;;;5023248;28;20349;-56
2022/03/13 10:54:37;;;;;;;16.98;11.55;;;;;;;;;;5030183;28;20385;-55
2022/03/13 10:57:12;;;;;;;17.52;12.20;;;;;;;;;;5025887;28;20052;-56
2022/03/13 10:59:40;;;;;;;16.17;11.70;;;;;;;;;;5026158;28;20083;-55
2022/03/13 11:02:14;;;;;;;17.30;11.70;;;;;;;;;;5021712;28;20026;-56
2022/03/13 11:04:46;;;;;;;18.48;11.70;;;;;;;;;;5029825;28;20034;-54
2022/03/13 11:07:13;;;;;;;17.35;11.77;;;;;;;;;;5024255;28;20078;-57
2022/03/13 11:09:39;;;;;;;16.98;11.95;;;;;;;;;;5032882;28;20071;-54
2022/03/13 11:12:06;;;;;;;18.08;12.38;;;;;;;;;;5030714;28;20057;-55
2022/03/13 11:14:34;;;;;;;26.48;17.95;;;;;;;;;;5024002;28;20112;-56
2022/03/13 11:17:00;;;;;;;17.08;11.63;;;;;;;;;;5026317;28;20120;-56
2022/03/13 11:19:26;;;;;;;15.30;11.65;;;;;;;;;;5025816;28;20132;-55
2022/03/13 11:21:52;;;;;;;14.93;11.52;;;;;;;;;;5025799;28;20022;-54
2022/03/13 11:24:19;;;;;;;19.20;12.63;;;;;;;;;;5024544;28;20036;-57
2022/03/13 11:26:46;;;;;;;18.23;12.48;;;;;;;;;;5025090;28;20032;-56
2022/03/13 11:29:12;;;;;;;16.95;12.23;;;;;;;;;;5020286;28;20412;-56
2022/03/13 11:31:42;;;;;;;16.33;11.82;;;;;;;;;;5022521;28;20040;-57
2022/03/13 11:34:13;;;;;;;18.17;12.18;;;;;;;;;;5021338;28;20037;-54
2022/03/13 11:36:41;;;;;;;19.45;12.65;;;;;;;;;;5020122;28;20560;-55
2022/03/13 11:39:08;;;;;;;20.15;12.98;;;;;;;;;;5031599;28;20025;-56
2022/03/13 11:41:39;;;;;;;20.50;12.98;;;;;;;;;;5021257;28;20029;-57
2022/03/13 11:44:06;;;;;;;19.48;12.43;;;;;;;;;;5023111;28;20550;-56
2022/03/13 11:46:39;;;;;;;17.48;12.88;;;;;;;;;;5033121;28;20029;-56
2022/03/13 11:49:18;;;;;;;20.02;12.38;;;;;;;;;;5020966;28;20120;-57
2022/03/13 11:51:45;;;;;;;18.85;13.13;;;;;;;;;;5021359;28;20109;-55
2022/03/13 11:54:15;;;;;;;19.63;12.63;;;;;;;;;;5031221;28;20075;-56
2022/03/13 11:56:47;;;;;;;18.45;12.88;;;;;;;;;;5026806;28;20063;-56
2022/03/13 11:59:22;;;;;;;17.65;12.20;;;;;;;;;;5032548;28;20051;-56
2022/03/13 12:01:49;;;;;;;17.38;13.00;;;;;;;;;;5025981;28;20105;-56
2022/03/13 12:04:15;;;;;;;20.95;12.52;;;;;;;;;;5024717;28;20111;-56
2022/03/13 12:06:46;;;;;;;17.40;12.70;;;;;;;;;;5031839;28;20808;-56
2022/03/13 12:09:13;;;;;;;17.38;12.02;;;;;;;;;;5025070;28;20149;-57
2022/03/13 12:11:43;;;;;;;21.95;12.50;;;;;;;;;;5021113;28;20040;-56
2022/03/13 12:14:10;;;;;;;16.92;11.70;;;;;;;;;;5022156;28;20036;-56
2022/03/13 12:16:37;;;;;;;20.80;13.55;;;;;;;;;;5025205;28;20377;-55
2022/03/13 12:19:03;;;;;;;17.30;12.15;;;;;;;;;;5026394;28;20073;-57
2022/03/13 12:21:30;;;;;;;16.27;11.93;;;;;;;;;;5022508;28;20511;-55
2022/03/13 12:23:58;;;;;;;18.15;11.25;;;;;;;;;;5024564;28;20114;-57
2022/03/13 12:26:29;;;;;;;14.82;10.68;;;;;;;;;;5026042;28;20038;-57
2022/03/13 12:28:56;;;;;;;16.65;11.68;;;;;;;;;;5025552;28;20235;-57
2022/03/13 12:31:22;;;;;;;16.58;11.85;;;;;;;;;;5025362;28;20541;-56
2022/03/13 12:33:50;;;;;;;15.40;11.13;;;;;;;;;;5021044;28;20603;-55
2022/03/13 12:36:16;;;;;;;17.00;11.40;;;;;;;;;;5025908;28;20029;-56
2022/03/13 12:38:45;;;;;;;15.75;10.38;;;;;;;;;;5021257;28;20029;-56
2022/03/13 12:41:12;;;;;;;17.17;11.15;;;;;;;;;;5016679;28;20124;-56
2022/03/13 12:43:56;;;;;;;15.80;11.18;;;;;;;;;;5021648;28;20021;-57
2022/03/13 12:46:24;;;;;;;16.20;10.50;;;;;;;;;;5027214;28;20048;-56
2022/03/13 12:48:53;;;;;;;18.33;10.75;;;;;;;;;;5023655;28;20025;-56
2022/03/13 12:51:35;;;;;;;13.68;9.95;;;;;;;;;;5024816;28;20088;-57
2022/03/13 12:54:04;;;;;;;17.60;10.85;;;;;;;;;;5025142;28;20053;-56
2022/03/13 12:56:30;;;;;;;15.48;11.32;;;;;;;;;;5025537;28;20033;-55
2022/03/13 12:59:00;;;;;;;14.88;10.85;;;;;;;;;;5024813;28;20044;-56
2022/03/13 13:01:26;;;;;;;15.68;10.07;;;;;;;;;;5037889;28;20368;-56
2022/03/13 13:03:52;;;;;;;14.18;10.65;;;;;;;;;;5023852;28;20517;-56
2022/03/13 13:06:28;;;;;;;19.52;10.57;;;;;;;;;;5024401;28;20029;-57
2022/03/13 13:08:54;;;;;;;14.20;9.75;;;;;;;;;;5023736;28;20029;-55
2022/03/13 13:11:30;;;;;;;15.27;9.63;;;;;;;;;;5025770;28;20079;-56
2022/03/13 13:14:01;;;;;;;13.73;9.77;;;;;;;;;;5020164;28;20104;-56
2022/03/13 13:16:36;;;;;;;12.38;8.68;;;;;;;;;;5026040;28;20090;-56
2022/03/13 13:19:02;;;;;;;13.10;8.40;;;;;;;;;;5021303;28;20048;-57
2022/03/13 13:21:35;;;;;;;15.52;9.98;;;;;;;;;;5025873;28;20578;-56
2022/03/13 13:24:01;;;;;;;15.13;10.70;;;;;;;;;;5023781;28;20021;-55
2022/03/13 13:26:42;;;;;;;14.73;9.65;;;;;;;;;;5025906;28;20030;-55
2022/03/13 13:29:08;;;;;;;12.82;8.82;;;;;;;;;;5027409;28;20531;-56
2022/03/13 13:31:33;;;;;;;12.30;8.98;;;;;;;;;;5027112;28;20033;-57
2022/03/13 13:34:13;;;;;;;13.20;8.80;;;;;;;;;;5025541;28;20415;-56
2022/03/13 13:36:39;;;;;;;11.93;8.43;;;;;;;;;;5019449;28;20079;-56
2022/03/13 13:39:06;;;;;;;14.75;8.55;;;;;;;;;;5019468;28;20032;-57
2022/03/13 13:41:34;;;;;;;13.35;8.43;;;;;;;;;;5020418;28;20057;-55
2022/03/13 13:44:00;;;;;;;13.00;9.07;;;;;;;;;;5029712;28;20057;-56
2022/03/13 13:46:33;;;;;;;10.90;8.20;;;;;;;;;;5028956;28;20510;-56
2022/03/13 13:48:59;;;;;;;16.13;8.43;;;;;;;;;;5030095;28;20065;-56
2022/03/13 13:51:27;;;;;;;13.95;8.95;;;;;;;;;;5029205;28;20067;-56
2022/03/13 13:54:15;;;;;;;11.85;8.55;;;;;;;;;;5030386;28;20563;-56
2022/03/13 13:56:41;;;;;;;13.48;8.52;;;;;;;;;;5030217;28;20048;-57
2022/03/13 13:59:22;;;;;;;11.30;8.38;;;;;;;;;;5026039;28;20033;-56
2022/03/13 14:01:50;;;;;;;12.73;8.50;;;;;;;;;;5023986;28;20026;-55
2022/03/13 14:04:16;;;;;;;15.50;8.45;;;;;;;;;;5022676;28;20028;-55
2022/03/13 14:06:43;;;;;;;12.23;8.63;;;;;;;;;;5025323;28;20503;-56
2022/03/13 14:09:09;;;;;;;12.63;8.70;;;;;;;;;;5029244;28;20025;-56
2022/03/13 14:11:36;;;;;;;12.10;8.30;;;;;;;;;;5022853;28;20049;-55
2022/03/13 14:14:07;;;;;;;10.93;8.13;;;;;;;;;;5024522;28;20099;-57
2022/03/13 14:16:33;;;;;;;13.25;8.00;;;;;;;;;;5026573;28;20029;-58
2022/03/13 14:18:59;;;;;;;10.95;8.63;;;;;;;;;;5030448;28;20032;-57
2022/03/13 14:21:26;;;;;;;11.68;9.07;;;;;;;;;;5027788;28;20099;-56
2022/03/13 14:23:52;;;;;;;11.15;7.50;;;;;;;;;;5031283;28;20536;-56